• Join FlightAware (Why Join?)
  • Login
  • US Flag 
Gobble Gobble! 
11:55PM EST


 

Airport Tracker/Info


-or-


 

Live Flight TrackerFlight Track Log ✈ EJA962 ✈ 25-Jul-2013 ✈ KAEJ - KLNK

Flight Track Log - Related Links

Times and Time Zones

All times are in EDT time to prevent confusion due to time zone crossing. See the EJA962 flight status page for this flight to view local times or setup timezone preferences in your user account.

Time Position Orientation Groundspeed Altitude Reporting Facility
EDT Latitude Longitude Course Direction KTS MPH feet Rate Location/Type
08:55PM 38.9960 -105.4253 71° East  Level Estimated
08:55PM 38.5683 -105.9800 72° East 399 459 17,400  Level Denver Center
08:56PM 39.0318 -105.2858 72° East  Level Estimated
08:56PM 38.4964 -105.8836 134° Southeast 409 471 19,300  Level Denver Center
08:57PM 39.0675 -105.1462 72° East  Level Estimated
08:57PM 38.4672 -105.7211 103° East 421 484 21,100  Level Denver Center
08:58PM 39.1030 -105.0064 72° East  Level Estimated
08:59PM 39.1404 -104.8586 72° East  Level Estimated
08:59PM 38.4872 -105.5786 80° East 428 493 22,400  Level Denver Center
09:00PM 39.1775 -104.7107 72° East  Level Estimated
09:00PM 38.5408 -105.4181 67° East 437 503 24,400  Level Denver Center
09:01PM 39.2145 -104.5626 72° East  Level Estimated
09:01PM 38.5858 -105.2792 67° East 441 507 25,900  Level Denver Center
09:02PM 38.6386 -105.1183 67° East 447 514 27,400 1,320 Climbing Denver Center
09:03PM 38.6964 -104.9328 68° East 464 534 29,000 1,500 Climbing Denver Center
09:04PM 38.7469 -104.7758 68° East 474 545 30,500 1,380 Climbing Denver Center
09:05PM 38.7972 -104.6144 68° East 484 557 31,900 1,200 Climbing Denver Center
09:06PM 38.8486 -104.4511 68° East 492 566 33,100 1,200 Climbing Denver Center
09:07PM 38.9003 -104.2817 69° East 507 583 34,500 1,500 Climbing Denver Center
09:08PM 38.9636 -104.0772 68° East 517 595 36,200 1,560 Climbing Denver Center
09:09PM 39.0161 -103.9031 69° East 524 603 37,700 1,440 Climbing Denver Center
09:10PM 39.0694 -103.7286 68° East 527 606 39,200 1,320 Climbing Denver Center
09:11PM 39.1231 -103.5542 68° East 527 606 40,500 840 Climbing Denver Center
09:12PM 39.1744 -103.3806 69° East 523 602 41,000 240 Climbing Denver Center
09:13PM 39.2378 -103.1706 69° East 527 606 41,000  Level Denver Center
09:14PM 39.2892 -102.9958 69° East 525 604 41,000  Level Denver Center
09:15PM 39.3403 -102.8206 69° East 524 603 41,000  Level Denver Center
09:16PM 39.3911 -102.6481 69° East 519 597 41,000  Level Denver Center
09:17PM 39.4408 -102.4753 70° East 515 593 41,000  Level Denver Center
09:18PM 39.4928 -102.2961 69° East 512 589 41,000  Level Denver Center
09:19PM 39.5475 -102.1039 70° East 510 587 41,000  Level Denver Center
09:20PM 39.5853 -101.9672 70° East 508 585 41,000  Level Denver Center
09:21PM 39.6475 -101.7503 70° East 505 581 41,000  Level Denver Center
09:22PM 39.6931 -101.5864 70° East 506 582 41,000  Level Denver Center
09:23PM 39.7461 -101.3981 70° East 501 577 41,000  Level Denver Center
09:25PM 39.7911 -101.2322 71° East 506 582 41,000  Level Denver Center
09:26PM 39.8447 -101.0383 70° East 510 587 41,000  Level Denver Center
09:27PM 39.8911 -100.8714 70° East 513 590 41,000  Level Denver Center
09:28PM 39.9356 -100.7014 71° East 519 597 41,000 -300 Level Denver Center
09:29PM 39.9889 -100.5053 70° East 517 595 40,400 -960 Descending Denver Center
09:30PM 40.0353 -100.3308 71° East 530 610 39,100 -1,440 Descending Denver Center
09:31PM 40.0903 -100.1236 71° East 541 623 37,500 -1,500 Descending Denver Center
09:32PM 40.1383 -99.9392 71° East 557 641 36,100 -1,440 Descending Denver Center
09:33PM 40.1908 -99.7431 71° East 552 635 34,600 -1,320 Descending Denver Center
09:34PM 40.2400 -99.5525 71° East 553 636 33,400 -840 Descending Denver Center
09:35PM 40.2906 -99.3589 71° East 562 647 33,000 -240 Descending Denver Center
09:36PM 40.3475 -99.1306 72° East 553 636 33,000  Level Denver Center
09:37PM 40.3864 -98.9786 71° East 552 635 33,000  Level Denver Center
09:38PM 40.4525 -98.7136 72° East 552 635 33,000 -1,260 Level Denver Center
09:39PM 40.5000 -98.5200 72° East 561 646 30,200 -3,000 Descending Denver Center
09:40PM 40.5578 -98.2881 72° East 563 648 26,300 -3,180 Descending Minneapolis Center
09:42PM 40.5970 -98.1089 73° East  Level FlightAware Approximate
09:42PM 40.6506 -97.9058 73° East 497 572 19,900  Level Minneapolis Center
09:43PM 40.6886 -97.7472 72° East 468 539 17,300 -2,520 Descending Minneapolis Center
09:44PM 40.7011 -97.5894 84° East 377 434 14,800 -2,340 Descending Minneapolis Center
09:45PM 40.7236 -97.5022 71° East 370 426 13,300 -1,920 Descending Minneapolis Center
09:47PM 40.7853 -97.3314 64° Northeast 368 423 10,900 -1,680 Descending Minneapolis Center
09:47PM 40.7839 -97.2631 92° East 310 357 10,100 -1,560 Descending Minneapolis Center
09:48PM 40.8128 -97.2250 45° Northeast 320 368 9,300 -2,100 Descending Minneapolis Center
09:48PM 40.8094 -97.1589 94° East 293 337 8,000 -2,040 Descending Minneapolis Center
09:49PM 40.8369 -97.1200 47° Northeast 303 349 7,200 -1,920 Descending Minneapolis Center
09:49PM 40.8350 -97.0519 92° East 303 349 6,100 -1,800 Descending Minneapolis Center
09:50PM 40.8603 -97.0142 48° Northeast 302 348 5,400 -1,620 Descending Minneapolis Center
09:51PM 40.8836 -96.9119 73° East 295 339 3,600 -1,320 Descending Minneapolis Center
09:52PM 40.8964 -96.8258 79° East 259 298 2,800 -780 Descending Minneapolis Center
09:53PM 40.8931 -96.7619 94° East 182 209 2,000 -540 Descending Minneapolis Center
09:54PM 40.8653 -96.7358 145° Southeast 164 189 1,700 -300 Descending Minneapolis Center
09:56PM 40.8500 -96.7500 180° South  Level FlightAware Approximate